createdAt,value
2018-01-23T00:01:12.544Z,66.47
2018-01-23T00:03:38.821Z,65.43
2018-01-23T00:06:05.941Z,61.60
2018-01-23T00:08:32.250Z,68.53
2018-01-23T00:10:58.481Z,68.23
2018-01-23T00:13:25.549Z,69.87
2018-01-23T00:15:51.809Z,75.57
2018-01-23T00:18:18.133Z,68.57
2018-01-23T00:20:44.516Z,64.73
2018-01-23T00:23:10.846Z,68.00
2018-01-23T00:25:37.908Z,62.73
2018-01-23T00:28:04.942Z,63.70
2018-01-23T00:30:32.081Z,64.07
2018-01-23T00:32:58.314Z,61.33
2018-01-23T00:35:24.577Z,57.40
2018-01-23T00:37:50.802Z,60.93
2018-01-23T00:40:17.107Z,59.10
2018-01-23T00:42:44.142Z,59.10
2018-01-23T00:45:10.384Z,59.43
2018-01-23T00:47:37.352Z,61.13
2018-01-23T00:50:03.643Z,58.23
2018-01-23T00:52:29.949Z,55.53
2018-01-23T00:54:56.189Z,58.80
2018-01-23T00:57:22.454Z,65.13
2018-01-23T00:59:49.498Z,59.33
2018-01-23T01:02:16.469Z,63.03
2018-01-23T01:04:42.789Z,67.10
2018-01-23T01:07:09.021Z,64.60
2018-01-23T01:09:35.330Z,65.30
2018-01-23T01:12:02.297Z,67.70
2018-01-23T01:14:28.584Z,67.03
2018-01-23T01:16:54.837Z,59.60
2018-01-23T01:19:21.919Z,62.77
2018-01-23T01:21:48.159Z,66.00
2018-01-23T01:24:14.378Z,62.13
2018-01-23T01:26:40.620Z,61.73
2018-01-23T01:29:06.859Z,65.23
2018-01-23T01:31:33.158Z,63.07
2018-01-23T01:33:59.402Z,66.93
2018-01-23T01:36:25.632Z,68.20
2018-01-23T01:38:51.872Z,62.50
2018-01-23T01:41:18.128Z,60.33
2018-01-23T01:43:44.328Z,61.73
2018-01-23T01:46:10.598Z,66.63
2018-01-23T01:48:49.880Z,66.60
2018-01-23T01:51:16.140Z,66.90
2018-01-23T01:53:42.387Z,72.13
2018-01-23T01:56:08.627Z,60.30
2018-01-23T01:58:34.893Z,71.23
2018-01-23T02:01:01.125Z,65.70
2018-01-23T02:03:27.353Z,61.80
2018-01-23T02:05:53.617Z,76.43
2018-01-23T02:08:19.906Z,68.33
2018-01-23T02:10:46.115Z,72.87
2018-01-23T02:13:12.344Z,74.60
2018-01-23T02:15:38.589Z,65.57
2018-01-23T02:18:04.864Z,63.63
2018-01-23T02:20:31.883Z,76.10
2018-01-23T02:22:58.174Z,72.33
2018-01-23T02:25:24.425Z,82.23
2018-01-23T02:27:50.722Z,69.10
2018-01-23T02:30:16.994Z,65.30
2018-01-23T02:32:43.242Z,65.77
2018-01-23T02:35:09.510Z,61.43
2018-01-23T02:37:35.806Z,73.20
2018-01-23T02:40:02.186Z,74.60
2018-01-23T02:42:28.442Z,66.97
2018-01-23T02:44:54.721Z,70.77
2018-01-23T02:47:20.950Z,83.57
2018-01-23T02:49:47.190Z,70.70
2018-01-23T02:52:13.494Z,84.50
2018-01-23T02:54:40.467Z,83.13
2018-01-23T02:57:06.719Z,78.43
2018-01-23T02:59:32.961Z,77.63
2018-01-23T03:01:59.247Z,74.27
2018-01-23T03:04:25.490Z,79.23
2018-01-23T03:06:51.725Z,81.73
2018-01-23T03:09:18.003Z,78.77
2018-01-23T03:11:45.009Z,78.07
2018-01-23T03:14:11.230Z,72.63
2018-01-23T03:16:37.468Z,84.53
2018-01-23T03:19:03.713Z,86.37
2018-01-23T03:21:29.990Z,85.03
2018-01-23T03:23:56.204Z,85.17
2018-01-23T03:26:22.432Z,81.43
2018-01-23T03:28:48.693Z,84.13
2018-01-23T03:31:14.931Z,93.40
2018-01-23T03:33:41.193Z,90.90
2018-01-23T03:36:08.206Z,85.83
2018-01-23T03:38:34.487Z,89.30
2018-01-23T03:41:00.786Z,81.00
2018-01-23T03:43:27.022Z,95.17
2018-01-23T03:45:54.089Z,96.13
2018-01-23T03:48:20.438Z,108.37
2018-01-23T03:50:46.932Z,134.00
2018-01-23T03:53:13.229Z,117.80
2018-01-23T03:55:39.463Z,125.30
2018-01-23T03:58:05.721Z,130.80
2018-01-23T04:00:31.994Z,115.97
2018-01-23T04:02:58.229Z,115.03
2018-01-23T04:05:24.486Z,118.97
2018-01-23T04:07:50.705Z,127.63
2018-01-23T04:10:16.978Z,132.40
2018-01-23T04:12:43.945Z,122.90
2018-01-23T04:15:10.205Z,126.60
2018-01-23T04:17:36.430Z,108.40
2018-01-23T04:20:02.710Z,132.37
2018-01-23T04:22:29.691Z,119.93
2018-01-23T04:24:55.903Z,113.83
2018-01-23T04:27:22.143Z,116.40
2018-01-23T04:29:48.457Z,106.50
2018-01-23T04:32:14.701Z,118.30
2018-01-23T04:34:40.977Z,112.77
2018-01-23T04:37:07.989Z,114.33
2018-01-23T04:39:34.195Z,136.53
2018-01-23T04:42:00.453Z,125.17
2018-01-23T04:44:26.698Z,132.63
2018-01-23T04:46:52.966Z,127.80
2018-01-23T04:49:19.217Z,109.30
2018-01-23T04:51:45.464Z,116.83
2018-01-23T04:54:11.697Z,112.97
2018-01-23T04:56:37.949Z,128.23
2018-01-23T04:59:04.162Z,114.83
2018-01-23T05:01:30.561Z,104.73
2018-01-23T05:03:56.794Z,105.27
2018-01-23T05:06:23.049Z,87.90
2018-01-23T05:08:49.298Z,107.27
2018-01-23T05:11:16.286Z,104.13
2018-01-23T05:13:42.529Z,114.13
2018-01-23T05:16:08.765Z,116.10
2018-01-23T05:18:35.117Z,101.83
2018-01-23T05:21:01.357Z,104.43
2018-01-23T05:23:28.356Z,98.33
2018-01-23T05:25:54.613Z,105.10
2018-01-23T05:28:20.929Z,89.53
2018-01-23T05:30:47.209Z,96.80
2018-01-23T05:33:13.473Z,96.37
2018-01-23T05:35:39.783Z,90.43
2018-01-23T05:38:06.031Z,84.23
2018-01-23T05:40:32.333Z,93.00
2018-01-23T05:42:58.560Z,90.70
2018-01-23T05:45:24.877Z,74.97
2018-01-23T05:47:51.920Z,77.50
2018-01-23T05:50:18.973Z,83.33
2018-01-23T05:52:45.374Z,94.27
2018-01-23T05:55:11.681Z,90.87
2018-01-23T05:57:37.902Z,88.37
2018-01-23T06:00:04.193Z,83.90
2018-01-23T06:02:30.479Z,84.63
2018-01-23T06:04:56.753Z,83.90
2018-01-23T06:07:23.704Z,78.33
2018-01-23T06:09:49.925Z,87.10
2018-01-23T06:12:16.199Z,86.93
2018-01-23T06:14:42.433Z,87.27
2018-01-23T06:17:08.934Z,80.57
2018-01-23T06:19:35.191Z,79.40
2018-01-23T06:22:01.476Z,82.77
2018-01-23T06:24:27.698Z,89.37
2018-01-23T06:26:54.766Z,89.73
2018-01-23T06:29:21.016Z,101.23
2018-01-23T06:31:47.252Z,92.40
2018-01-23T06:34:13.494Z,90.67
2018-01-23T06:36:39.781Z,102.00
2018-01-23T06:39:06.021Z,91.77
2018-01-23T06:41:32.282Z,89.73
2018-01-23T06:43:58.568Z,91.90
2018-01-23T06:46:24.838Z,84.70
2018-01-23T06:48:51.082Z,85.37
2018-01-23T06:51:18.139Z,92.93
2018-01-23T06:53:44.397Z,82.27
2018-01-23T06:56:10.773Z,84.77
2018-01-23T06:58:37.035Z,72.60
2018-01-23T07:01:03.294Z,82.03
2018-01-23T07:03:29.565Z,82.13
2018-01-23T07:05:56.629Z,81.40
2018-01-23T07:08:23.694Z,88.87
2018-01-23T07:10:49.950Z,94.93
2018-01-23T07:13:16.222Z,91.53
2018-01-23T07:15:43.311Z,106.77
2018-01-23T07:18:09.684Z,104.30
2018-01-23T07:20:35.967Z,96.47
2018-01-23T07:23:09.122Z,92.00
2018-01-23T07:25:35.354Z,101.77
2018-01-23T07:28:02.316Z,86.63
2018-01-23T07:30:28.629Z,89.47
2018-01-23T07:32:54.977Z,118.50
2018-01-23T07:35:21.951Z,95.23
2018-01-23T07:37:48.168Z,96.87
2018-01-23T07:40:15.235Z,99.23
2018-01-23T07:42:41.494Z,92.13
2018-01-23T07:45:08.460Z,99.23
2018-01-23T07:47:34.717Z,89.43
2018-01-23T07:50:00.969Z,79.90
2018-01-23T07:52:27.198Z,82.43
2018-01-23T07:54:53.632Z,82.17
2018-01-23T07:57:20.070Z,81.07
2018-01-23T07:59:46.403Z,77.50
2018-01-23T08:02:12.700Z,85.87
2018-01-23T08:04:39.264Z,86.07
2018-01-23T08:07:06.458Z,74.30
2018-01-23T08:09:33.481Z,73.33
2018-01-23T08:11:59.737Z,74.20
2018-01-23T08:14:26.034Z,71.27
2018-01-23T08:16:53.101Z,73.03
2018-01-23T08:19:20.709Z,67.33
2018-01-23T08:21:47.204Z,72.17
2018-01-23T08:24:13.551Z,73.67
2018-01-23T08:26:41.705Z,76.80
2018-01-23T08:29:08.089Z,70.70
2018-01-23T08:31:34.507Z,79.23
2018-01-23T08:34:00.778Z,75.63
2018-01-23T08:36:27.858Z,83.00
2018-01-23T08:38:55.072Z,83.70
2018-01-23T08:41:22.128Z,83.63
2018-01-23T08:43:49.168Z,80.83
2018-01-23T08:46:16.297Z,95.73
2018-01-23T08:48:42.606Z,90.93
2018-01-23T08:51:08.958Z,92.57
2018-01-23T08:53:35.297Z,98.60
2018-01-23T08:56:02.375Z,100.40
2018-01-23T08:58:28.646Z,99.33
2018-01-23T09:00:55.698Z,90.80
2018-01-23T09:03:22.791Z,88.67
2018-01-23T09:05:49.812Z,129.60
2018-01-23T09:08:16.098Z,117.60
2018-01-23T09:10:42.384Z,108.87
2018-01-23T09:13:09.371Z,94.23
2018-01-23T09:15:35.584Z,96.03
2018-01-23T09:18:01.910Z,94.30
2018-01-23T09:20:28.203Z,87.30
2018-01-23T09:22:54.485Z,91.80
2018-01-23T09:25:20.734Z,90.20
2018-01-23T09:27:47.064Z,87.70
2018-01-23T09:30:13.351Z,106.20
2018-01-23T09:32:40.404Z,91.90
2018-01-23T09:35:06.832Z,93.67
2018-01-23T09:37:33.806Z,89.20
2018-01-23T09:40:00.097Z,94.27
2018-01-23T09:42:26.337Z,88.07
2018-01-23T09:44:52.593Z,102.87
2018-01-23T09:47:18.802Z,88.77
2018-01-23T09:49:45.069Z,76.83
2018-01-23T09:52:11.324Z,86.00
2018-01-23T09:54:37.598Z,76.20
2018-01-23T09:57:03.858Z,82.20
2018-01-23T09:59:30.155Z,75.37
2018-01-23T10:01:56.417Z,76.33
2018-01-23T10:04:22.666Z,84.30
2018-01-23T10:06:48.978Z,74.77
2018-01-23T10:09:16.572Z,81.77
2018-01-23T10:11:42.925Z,63.13
2018-01-23T10:14:09.960Z,64.83
2018-01-23T10:19:10.029Z,63.53
2018-01-23T10:21:36.326Z,67.00
2018-01-23T10:24:02.581Z,55.07
2018-01-23T10:26:28.855Z,60.77
2018-01-23T10:28:55.122Z,59.37
2018-01-23T10:31:21.395Z,66.07
2018-01-23T10:33:47.643Z,67.77
2018-01-23T10:36:13.982Z,57.37
2018-01-23T10:38:40.965Z,61.07
2018-01-23T10:41:07.265Z,64.43
2018-01-23T10:43:34.253Z,62.03
2018-01-23T10:46:00.499Z,71.87
2018-01-23T10:48:26.794Z,78.90
2018-01-23T10:50:53.066Z,66.83
2018-01-23T10:53:19.338Z,67.30
2018-01-23T10:55:45.597Z,70.77
2018-01-23T10:58:11.820Z,71.60
2018-01-23T11:00:44.121Z,75.50
2018-01-23T11:03:10.371Z,72.33
2018-01-23T11:05:36.637Z,78.07
2018-01-23T11:08:02.929Z,80.57
2018-01-23T11:10:29.178Z,80.07
2018-01-23T11:12:56.183Z,75.37
2018-01-23T11:15:22.457Z,77.70
2018-01-23T11:17:49.306Z,84.03
2018-01-23T11:20:15.581Z,83.27
2018-01-23T11:22:41.857Z,85.23
2018-01-23T11:25:08.282Z,92.83
2018-01-23T11:27:35.377Z,91.87
2018-01-23T11:30:02.726Z,85.70
2018-01-23T11:32:30.363Z,91.10
2018-01-23T11:34:56.700Z,82.67
2018-01-23T11:37:22.941Z,79.43
2018-01-23T11:39:49.202Z,82.13
2018-01-23T11:42:15.578Z,76.67
2018-01-23T11:44:41.963Z,75.97
2018-01-23T11:47:08.964Z,79.50
2018-01-23T11:49:35.207Z,81.20
2018-01-23T11:52:01.453Z,88.43
2018-01-23T11:54:27.673Z,87.00
2018-01-23T11:56:53.917Z,91.57
2018-01-23T11:59:20.173Z,90.87
2018-01-23T12:01:47.173Z,88.00
2018-01-23T12:04:13.427Z,83.63
2018-01-23T12:06:39.698Z,89.23
2018-01-23T12:09:05.906Z,86.77
2018-01-23T12:11:32.960Z,73.13
2018-01-23T12:13:59.952Z,82.80
2018-01-23T12:16:27.580Z,82.73
2018-01-23T12:18:55.021Z,66.27
2018-01-23T12:21:22.062Z,75.13
2018-01-23T12:23:48.348Z,77.30
2018-01-23T12:26:14.627Z,76.10
2018-01-23T12:28:40.929Z,69.27
2018-01-23T12:31:10.304Z,76.27
2018-01-23T12:33:36.620Z,73.43
2018-01-23T12:36:03.744Z,65.23
2018-01-23T12:38:30.222Z,76.70
2018-01-23T12:41:00.557Z,76.90
2018-01-23T12:43:27.649Z,81.73
2018-01-23T12:45:53.887Z,66.30
2018-01-23T12:48:20.242Z,71.07
2018-01-23T12:50:46.552Z,66.93
2018-01-23T12:53:12.869Z,67.43
2018-01-23T12:55:39.150Z,68.57
2018-01-23T12:58:05.443Z,81.23
2018-01-23T13:00:31.897Z,85.13
2018-01-23T13:02:59.634Z,76.27
2018-01-23T13:05:26.191Z,86.27
2018-01-23T13:07:53.302Z,80.70
2018-01-23T13:10:19.667Z,79.73
2018-01-23T13:12:46.009Z,83.50
2018-01-23T13:15:12.297Z,78.87
2018-01-23T13:17:38.686Z,81.53
2018-01-23T13:20:05.752Z,72.77
2018-01-23T13:22:32.882Z,88.80
2018-01-23T13:24:59.236Z,83.80
2018-01-23T13:27:25.604Z,78.57
2018-01-23T13:29:52.095Z,83.10
2018-01-23T13:32:18.675Z,68.43
2018-01-23T13:34:45.241Z,73.23
2018-01-23T13:37:11.660Z,82.57
2018-01-23T13:39:38.133Z,79.13
2018-01-23T13:42:04.465Z,74.63
2018-01-23T13:44:31.055Z,72.07
2018-01-23T13:46:57.482Z,70.53
2018-01-23T13:49:23.747Z,74.30
2018-01-23T13:51:50.049Z,74.63
2018-01-23T13:54:16.406Z,66.17
2018-01-23T13:56:43.304Z,67.87
2018-01-23T13:59:10.580Z,73.00
2018-01-23T14:01:36.894Z,74.50
2018-01-23T14:04:03.113Z,70.70
2018-01-23T14:06:29.365Z,74.00
2018-01-23T14:08:55.680Z,65.77
2018-01-23T14:11:21.982Z,71.20
2018-01-23T14:13:48.199Z,90.47
2018-01-23T14:16:14.529Z,76.43
2018-01-23T14:18:41.502Z,81.77
2018-01-23T14:21:07.834Z,76.87
2018-01-23T14:23:34.720Z,72.57
2018-01-23T14:26:00.986Z,72.67
2018-01-23T14:28:29.818Z,67.97
2018-01-23T14:30:56.337Z,76.30
2018-01-23T14:33:22.797Z,69.80
2018-01-23T14:35:49.584Z,85.73
2018-01-23T14:38:16.001Z,79.77
2018-01-23T14:40:42.962Z,67.50
2018-01-23T14:43:10.399Z,78.27
2018-01-23T14:45:39.670Z,89.03
2018-01-23T14:48:05.936Z,67.43
2018-01-23T14:50:32.937Z,79.00
2018-01-23T14:52:59.289Z,85.60
2018-01-23T14:55:27.551Z,96.50
2018-01-23T14:57:54.317Z,75.70
2018-01-23T15:00:21.862Z,84.00
2018-01-23T15:02:57.453Z,85.80
2018-01-23T15:05:25.451Z,93.60
2018-01-23T15:07:52.699Z,77.70
2018-01-23T15:10:25.678Z,91.87
2018-01-23T15:12:52.060Z,90.17
2018-01-23T15:15:19.154Z,80.80
2018-01-23T15:17:45.426Z,85.80
2018-01-23T15:22:56.905Z,79.43
2018-01-23T15:25:26.183Z,80.10
2018-01-23T15:27:56.825Z,76.43
2018-01-23T15:30:25.047Z,98.27
2018-01-23T15:32:54.408Z,85.43
2018-01-23T15:35:22.136Z,81.27
2018-01-23T15:37:49.644Z,76.13
2018-01-23T15:40:15.961Z,84.10
2018-01-23T15:42:42.238Z,91.50
2018-01-23T15:45:08.507Z,90.43
2018-01-23T15:47:34.812Z,80.83
2018-01-23T15:50:01.189Z,86.30
2018-01-23T15:52:27.492Z,76.77
2018-01-23T15:54:53.726Z,83.00
2018-01-23T15:57:20.018Z,80.10
2018-01-23T15:59:46.284Z,90.37
2018-01-23T16:02:13.729Z,95.43
2018-01-23T16:04:39.946Z,87.80
2018-01-23T16:07:06.274Z,94.13
2018-01-23T16:09:33.499Z,95.50
2018-01-23T16:12:03.263Z,78.53
2018-01-23T16:14:29.573Z,100.30
2018-01-23T16:16:55.879Z,91.20
2018-01-23T16:19:22.236Z,88.03
2018-01-23T16:21:48.480Z,85.27
2018-01-23T16:24:14.790Z,97.10
2018-01-23T16:26:41.086Z,82.23
2018-01-23T16:29:07.413Z,88.03
2018-01-23T16:31:34.541Z,95.57
2018-01-23T16:34:00.833Z,84.47
2018-01-23T16:36:27.532Z,99.90
2018-01-23T16:38:54.634Z,90.47
2018-01-23T16:41:20.909Z,99.20
2018-01-23T16:43:47.978Z,90.00
2018-01-23T16:46:14.353Z,97.97
2018-01-23T16:48:41.650Z,106.23
2018-01-23T16:51:08.079Z,106.80
2018-01-23T16:53:35.120Z,88.87
2018-01-23T16:56:02.390Z,105.67
2018-01-23T16:58:28.851Z,93.97
2018-01-23T17:00:55.199Z,100.47
2018-01-23T17:03:22.781Z,96.77
2018-01-23T17:05:58.850Z,98.37
2018-01-23T17:08:25.889Z,87.60
2018-01-23T17:10:52.253Z,97.37
2018-01-23T17:13:19.419Z,108.70
2018-01-23T17:15:46.682Z,90.77
2018-01-23T17:18:13.045Z,93.47
2018-01-23T17:20:40.111Z,101.90
2018-01-23T17:25:51.105Z,96.83
2018-01-23T17:28:17.486Z,108.67
2018-01-23T17:30:44.961Z,104.90
2018-01-23T17:33:13.076Z,121.73
2018-01-23T17:35:47.640Z,108.40
2018-01-23T17:38:15.094Z,104.40
2018-01-23T17:40:44.514Z,97.17
2018-01-23T17:43:12.077Z,111.63
2018-01-23T17:45:40.035Z,105.60
2018-01-23T17:48:07.175Z,103.50
2018-01-23T17:50:33.628Z,94.00
2018-01-23T17:53:00.760Z,85.23
2018-01-23T17:55:28.751Z,117.63
2018-01-23T17:57:56.597Z,103.27
2018-01-23T18:00:23.374Z,96.73
2018-01-23T18:02:50.674Z,92.60
2018-01-23T18:05:17.250Z,95.53
2018-01-23T18:07:46.875Z,78.53
2018-01-23T18:10:20.223Z,82.90
2018-01-23T18:12:48.759Z,78.37
2018-01-23T18:15:19.584Z,95.00
2018-01-23T18:17:45.947Z,81.33
2018-01-23T18:20:12.706Z,100.47
2018-01-23T18:22:40.131Z,82.73
2018-01-23T18:25:06.741Z,83.10
2018-01-23T18:27:33.964Z,72.73
2018-01-23T18:30:01.362Z,86.30
2018-01-23T18:32:27.933Z,80.07
2018-01-23T18:34:54.268Z,87.80
2018-01-23T18:37:20.587Z,71.47
2018-01-23T18:39:46.986Z,83.67
2018-01-23T18:42:13.322Z,69.33
2018-01-23T18:44:39.681Z,65.37
2018-01-23T18:47:06.034Z,69.30
2018-01-23T18:49:32.406Z,69.70
2018-01-23T18:51:58.691Z,67.40
2018-01-23T18:54:25.031Z,79.03
2018-01-23T18:56:51.328Z,73.53
2018-01-23T18:59:18.478Z,62.30
2018-01-23T19:01:45.846Z,79.77
2018-01-23T19:04:13.980Z,69.23
2018-01-23T19:06:42.399Z,71.23
2018-01-23T19:09:09.355Z,79.10
2018-01-23T19:11:39.334Z,65.60
2018-01-23T19:14:16.415Z,63.10
2018-01-23T19:16:43.764Z,60.00
2018-01-23T19:19:10.105Z,73.20
2018-01-23T19:21:36.494Z,69.97
2018-01-23T19:24:03.644Z,74.50
2018-01-23T19:26:30.061Z,62.13
2018-01-23T19:28:56.361Z,64.00
2018-01-23T19:31:23.097Z,68.30
2018-01-23T19:33:49.893Z,64.60
2018-01-23T19:36:18.173Z,62.27
2018-01-23T19:38:45.241Z,48.50
2018-01-23T19:41:12.806Z,57.40
2018-01-23T19:43:39.147Z,53.77
2018-01-23T19:46:05.444Z,51.93
2018-01-23T19:48:31.737Z,62.77
2018-01-23T19:50:58.111Z,51.80
2018-01-23T19:53:25.252Z,56.87
2018-01-23T19:55:51.619Z,52.17
2018-01-23T19:58:17.951Z,50.17
2018-01-23T20:00:45.006Z,51.90
2018-01-23T20:03:11.425Z,63.67
2018-01-23T20:05:37.750Z,60.60
2018-01-23T20:08:04.075Z,52.37
2018-01-23T20:10:31.254Z,53.27
2018-01-23T20:12:57.577Z,45.37
2018-01-23T20:15:24.005Z,49.17
2018-01-23T20:17:50.271Z,42.73
2018-01-23T20:20:16.570Z,43.00
2018-01-23T20:25:37.755Z,47.47
2018-01-23T20:28:04.116Z,44.13
2018-01-23T20:30:30.448Z,39.93
2018-01-23T20:33:05.791Z,49.00
2018-01-23T20:35:36.095Z,47.37
2018-01-23T20:38:03.678Z,48.10
2018-01-23T20:40:30.087Z,46.03
2018-01-23T20:42:56.549Z,39.97
2018-01-23T20:45:27.158Z,39.03
2018-01-23T20:47:54.385Z,42.67
2018-01-23T20:50:20.724Z,36.70
2018-01-23T20:52:47.579Z,37.47
2018-01-23T20:55:14.182Z,36.47
2018-01-23T20:57:40.617Z,33.90
2018-01-23T21:00:09.065Z,33.47
2018-01-23T21:02:35.480Z,37.43
2018-01-23T21:05:04.674Z,41.63
2018-01-23T21:13:30.682Z,36.47
2018-01-23T21:15:57.765Z,35.77
2018-01-23T21:18:24.199Z,29.70
2018-01-23T21:20:51.472Z,37.63
2018-01-23T21:23:17.952Z,31.90
2018-01-23T21:25:45.043Z,37.60
2018-01-23T21:28:12.082Z,29.53
2018-01-23T21:30:38.785Z,29.83
2018-01-23T21:33:05.874Z,34.33
2018-01-23T21:35:32.154Z,43.27
2018-01-23T21:37:58.489Z,32.80
2018-01-23T21:40:25.525Z,32.73
2018-01-23T21:42:51.813Z,32.10
2018-01-23T21:45:18.149Z,29.80
2018-01-23T21:47:45.538Z,28.00
2018-01-23T21:50:13.836Z,38.13
2018-01-23T21:52:40.305Z,26.03
2018-01-23T21:55:09.363Z,23.13
2018-01-23T21:57:36.334Z,29.00
2018-01-23T22:00:02.659Z,35.07
2018-01-23T22:02:29.044Z,43.07
2018-01-23T22:04:55.336Z,34.00
2018-01-23T22:07:22.475Z,28.87
2018-01-23T22:09:51.666Z,31.43
2018-01-23T22:12:22.893Z,28.20
2018-01-23T22:14:49.892Z,33.13
2018-01-23T22:17:16.193Z,26.17
2018-01-23T22:19:42.426Z,30.37
2018-01-23T22:22:08.702Z,36.03
2018-01-23T22:24:34.934Z,30.43
2018-01-23T22:27:01.932Z,30.00
2018-01-23T22:29:29.137Z,33.40
2018-01-23T22:31:55.410Z,27.27
2018-01-23T22:34:21.709Z,28.93
2018-01-23T22:36:48.700Z,28.00
2018-01-23T22:39:15.694Z,24.90
2018-01-23T22:41:42.745Z,26.60
2018-01-23T22:44:09.781Z,26.33
2018-01-23T22:46:36.121Z,28.17
2018-01-23T22:49:03.129Z,21.60
2018-01-23T22:51:29.411Z,24.50
2018-01-23T22:53:55.724Z,26.60
2018-01-23T22:56:22.722Z,26.53
2018-01-23T22:58:48.997Z,21.13
2018-01-23T23:01:15.985Z,22.20
2018-01-23T23:03:42.293Z,18.60
2018-01-23T23:06:08.572Z,18.07
2018-01-23T23:08:34.889Z,17.73
2018-01-23T23:11:01.170Z,19.17
2018-01-23T23:13:27.440Z,25.57
2018-01-23T23:15:54.582Z,17.60
2018-01-23T23:18:20.824Z,29.03
2018-01-23T23:20:47.146Z,20.73
2018-01-23T23:23:13.373Z,18.57
2018-01-23T23:25:39.657Z,20.20
2018-01-23T23:28:06.253Z,19.40
2018-01-23T23:30:32.577Z,23.90
2018-01-23T23:32:58.841Z,26.17
2018-01-23T23:35:25.932Z,29.07
2018-01-23T23:37:53.722Z,24.47
2018-01-23T23:40:21.073Z,25.83
2018-01-23T23:42:47.461Z,21.07
2018-01-23T23:45:13.720Z,15.60
2018-01-23T23:47:40.075Z,32.30
2018-01-23T23:50:06.354Z,26.30
2018-01-23T23:52:32.620Z,24.93
2018-01-23T23:54:58.889Z,20.03
2018-01-23T23:57:25.889Z,23.03
2018-01-23T23:59:52.262Z,19.53
